createdAt,value
2017-07-31T00:00:31.504Z,1004.4
2017-07-31T00:01:31.493Z,1004.39
2017-07-31T00:02:31.483Z,1004.4
2017-07-31T00:03:31.476Z,1004.41
2017-07-31T00:04:31.465Z,1004.38
2017-07-31T00:05:31.455Z,1004.38
2017-07-31T00:06:31.443Z,1004.41
2017-07-31T00:07:31.436Z,1004.48
2017-07-31T00:08:31.424Z,1004.47
2017-07-31T00:09:31.417Z,1004.47
2017-07-31T00:10:31.412Z,1004.46
2017-07-31T00:11:31.397Z,1004.42
2017-07-31T00:12:31.386Z,1004.4
2017-07-31T00:13:31.376Z,1004.34
2017-07-31T00:14:31.368Z,1004.29
2017-07-31T00:15:31.358Z,1004.22
2017-07-31T00:16:31.348Z,1004.22
2017-07-31T00:17:31.340Z,1004.1
2017-07-31T00:18:31.328Z,1004.04
2017-07-31T00:19:31.318Z,1004.02
2017-07-31T00:20:31.309Z,1003.95
2017-07-31T00:21:31.298Z,1003.89
2017-07-31T00:22:31.290Z,1003.88
2017-07-31T00:23:31.279Z,1003.87
2017-07-31T00:24:31.269Z,1003.88
2017-07-31T00:25:31.259Z,1003.94
2017-07-31T00:26:31.250Z,1003.9
2017-07-31T00:27:31.240Z,1003.83
2017-07-31T00:28:31.229Z,1003.83
2017-07-31T00:29:31.221Z,1003.78
2017-07-31T00:30:31.210Z,1003.82
2017-07-31T00:31:31.200Z,1003.79
2017-07-31T00:32:31.192Z,1003.84
2017-07-31T00:33:31.183Z,1003.9
2017-07-31T00:34:31.170Z,1003.95
2017-07-31T00:35:31.161Z,1003.95
2017-07-31T00:36:31.152Z,1003.97
2017-07-31T00:37:31.142Z,1003.99
2017-07-31T00:38:31.134Z,1003.97
2017-07-31T00:39:31.122Z,1003.99
2017-07-31T00:40:31.114Z,1003.98
2017-07-31T00:41:31.102Z,1003.99
2017-07-31T00:42:31.115Z,1003.99
2017-07-31T00:43:31.084Z,1003.96
2017-07-31T00:44:31.074Z,1003.98
2017-07-31T00:45:31.063Z,1003.92
2017-07-31T00:46:31.055Z,1003.92
2017-07-31T00:47:31.046Z,1003.92
2017-07-31T00:48:31.035Z,1003.86
2017-07-31T00:49:31.023Z,1003.86
2017-07-31T00:50:31.014Z,1003.86
2017-07-31T00:51:31.005Z,1003.92
2017-07-31T00:52:30.994Z,1003.88
2017-07-31T00:53:30.984Z,1003.92
2017-07-31T00:54:30.974Z,1003.89
2017-07-31T00:55:30.986Z,1003.87
2017-07-31T00:56:30.954Z,1003.93
2017-07-31T00:57:30.945Z,1003.91
2017-07-31T00:58:30.937Z,1003.95
2017-07-31T00:59:30.928Z,1003.91
2017-07-31T01:00:30.915Z,1004
2017-07-31T01:01:30.905Z,1004
2017-07-31T01:02:30.898Z,1003.98
2017-07-31T01:03:30.886Z,1004.01
2017-07-31T01:04:30.877Z,1004
2017-07-31T01:05:30.868Z,1003.99
2017-07-31T01:06:30.855Z,1004
2017-07-31T01:07:30.846Z,1003.99
2017-07-31T01:08:30.838Z,1003.98
2017-07-31T01:09:30.826Z,1003.96
2017-07-31T01:10:30.818Z,1004
2017-07-31T01:11:30.807Z,1003.94
2017-07-31T01:12:30.797Z,1003.95
2017-07-31T01:13:30.786Z,1004.02
2017-07-31T01:14:30.775Z,1003.99
2017-07-31T01:15:30.766Z,1003.94
2017-07-31T01:16:30.758Z,1003.92
2017-07-31T01:17:30.747Z,1003.92
2017-07-31T01:18:30.736Z,1003.93
2017-07-31T01:19:30.728Z,1003.9
2017-07-31T01:20:30.718Z,1003.89
2017-07-31T01:21:30.708Z,1003.85
2017-07-31T01:22:30.698Z,1003.9
2017-07-31T01:23:30.692Z,1003.92
2017-07-31T01:24:30.677Z,1003.9
2017-07-31T01:25:30.668Z,1003.89
2017-07-31T01:26:30.658Z,1003.9
2017-07-31T01:27:30.647Z,1003.87
2017-07-31T01:28:30.641Z,1003.87
2017-07-31T01:29:30.628Z,1003.88
2017-07-31T01:30:30.617Z,1003.89
2017-07-31T01:31:30.609Z,1003.87
2017-07-31T01:32:30.599Z,1003.89
2017-07-31T01:33:30.588Z,1003.91
2017-07-31T01:34:30.579Z,1003.86
2017-07-31T01:35:30.569Z,1003.88
2017-07-31T01:36:30.558Z,1003.88
2017-07-31T01:37:30.548Z,1003.9
2017-07-31T01:38:30.539Z,1003.89
2017-07-31T01:39:30.529Z,1003.85
2017-07-31T01:40:30.517Z,1003.85
2017-07-31T01:41:30.507Z,1003.89
2017-07-31T01:42:30.498Z,1003.88
2017-07-31T01:43:30.486Z,1003.84
2017-07-31T01:44:30.477Z,1003.77
2017-07-31T01:45:30.467Z,1003.8
2017-07-31T01:46:30.456Z,1003.79
2017-07-31T01:47:30.445Z,1003.81
2017-07-31T01:48:30.434Z,1003.79
2017-07-31T01:49:30.431Z,1003.83
2017-07-31T01:50:30.416Z,1003.81
2017-07-31T01:51:30.405Z,1003.83
2017-07-31T01:52:30.396Z,1003.81
2017-07-31T01:53:30.385Z,1003.86
2017-07-31T01:54:30.373Z,1003.85
2017-07-31T01:55:30.363Z,1003.82
2017-07-31T01:56:30.354Z,1003.87
2017-07-31T01:57:30.344Z,1003.83
2017-07-31T01:58:30.331Z,1003.82
2017-07-31T01:59:30.322Z,1003.82
2017-07-31T02:00:30.311Z,1003.84
2017-07-31T02:01:30.301Z,1003.81
2017-07-31T02:02:30.288Z,1003.81
2017-07-31T02:03:30.278Z,1003.77
2017-07-31T02:04:30.268Z,1003.8
2017-07-31T02:05:30.258Z,1003.8
2017-07-31T02:06:30.246Z,1003.85
2017-07-31T02:07:30.237Z,1003.83
2017-07-31T02:08:30.225Z,1003.85
2017-07-31T02:09:30.216Z,1003.83
2017-07-31T02:10:30.206Z,1003.85
2017-07-31T02:11:30.194Z,1003.87
2017-07-31T02:12:30.185Z,1003.83
2017-07-31T02:13:30.173Z,1003.85
2017-07-31T02:14:30.162Z,1003.85
2017-07-31T02:15:30.153Z,1003.88
2017-07-31T02:16:30.140Z,1003.88
2017-07-31T02:17:30.130Z,1003.86
2017-07-31T02:18:30.119Z,1003.88
2017-07-31T02:19:30.109Z,1003.87
2017-07-31T02:20:30.100Z,1003.9
2017-07-31T02:21:30.087Z,1003.85
2017-07-31T02:22:30.078Z,1003.84
2017-07-31T02:23:30.067Z,1003.84
2017-07-31T02:24:30.056Z,1003.83
2017-07-31T02:25:30.043Z,1003.76
2017-07-31T02:26:30.033Z,1003.76
2017-07-31T02:27:30.021Z,1003.75
2017-07-31T02:28:30.012Z,1003.75
2017-07-31T02:29:29.999Z,1003.73
2017-07-31T02:30:29.989Z,1003.67
2017-07-31T02:31:29.979Z,1003.66
2017-07-31T02:32:29.968Z,1003.61
2017-07-31T02:33:29.957Z,1003.64
2017-07-31T02:34:29.947Z,1003.6
2017-07-31T02:35:29.933Z,1003.62
2017-07-31T02:36:29.925Z,1003.61
2017-07-31T02:37:29.913Z,1003.65
2017-07-31T02:38:29.905Z,1003.65
2017-07-31T02:39:29.890Z,1003.65
2017-07-31T02:40:29.880Z,1003.65
2017-07-31T02:41:29.869Z,1003.61
2017-07-31T02:42:29.859Z,1003.63
2017-07-31T02:43:29.849Z,1003.64
2017-07-31T02:44:29.837Z,1003.64
2017-07-31T02:45:29.828Z,1003.63
2017-07-31T02:46:29.813Z,1003.67
2017-07-31T02:47:29.803Z,1003.76
2017-07-31T02:48:29.792Z,1003.82
2017-07-31T02:49:29.781Z,1003.88
2017-07-31T02:50:29.770Z,1003.92
2017-07-31T02:51:29.758Z,1003.98
2017-07-31T02:52:29.749Z,1004.07
2017-07-31T02:53:29.738Z,1004.04
2017-07-31T02:54:29.726Z,1004.06
2017-07-31T02:55:29.714Z,1004.08
2017-07-31T02:56:29.704Z,1004.11
2017-07-31T02:57:29.692Z,1004.16
2017-07-31T02:58:29.682Z,1004.19
2017-07-31T02:59:29.670Z,1004.17
2017-07-31T03:00:29.657Z,1004.17
2017-07-31T03:01:29.648Z,1004.18
2017-07-31T03:02:29.636Z,1004.2
2017-07-31T03:03:29.625Z,1004.2
2017-07-31T03:04:29.614Z,1004.19
2017-07-31T03:05:29.604Z,1004.19
2017-07-31T03:06:29.592Z,1004.21
2017-07-31T03:07:29.581Z,1004.21
2017-07-31T03:08:29.569Z,1004.18
2017-07-31T03:09:29.559Z,1004.18
2017-07-31T03:10:29.546Z,1004.22
2017-07-31T03:11:29.537Z,1004.22
2017-07-31T03:12:29.524Z,1004.2
2017-07-31T03:13:29.513Z,1004.2
2017-07-31T03:14:29.502Z,1004.23
2017-07-31T03:15:29.489Z,1004.17
2017-07-31T03:16:29.478Z,1004.14
2017-07-31T03:17:29.467Z,1004.15
2017-07-31T03:18:29.456Z,1004.16
2017-07-31T03:19:29.445Z,1004.18
2017-07-31T03:20:29.434Z,1004.19
2017-07-31T03:21:29.420Z,1004.17
2017-07-31T03:22:29.410Z,1004.17
2017-07-31T03:23:29.397Z,1004.13
2017-07-31T03:24:29.387Z,1004.16
2017-07-31T03:25:29.376Z,1004.15
2017-07-31T03:26:29.363Z,1004.17
2017-07-31T03:27:29.352Z,1004.2
2017-07-31T03:28:29.340Z,1004.2
2017-07-31T03:29:29.328Z,1004.18
2017-07-31T03:30:29.316Z,1004.18
2017-07-31T03:31:29.308Z,1004.17
2017-07-31T03:32:29.294Z,1004.11
2017-07-31T03:33:29.282Z,1004.11
2017-07-31T03:34:29.273Z,1004.07
2017-07-31T03:35:29.260Z,1004.12
2017-07-31T03:36:29.249Z,1004.11
2017-07-31T03:37:29.237Z,1004.08
2017-07-31T03:38:29.226Z,1004.08
2017-07-31T03:39:29.213Z,1004.1
2017-07-31T03:40:29.202Z,1004.1
2017-07-31T03:41:29.191Z,1004.08
2017-07-31T03:42:29.179Z,1004.13
2017-07-31T03:43:29.168Z,1004.17
2017-07-31T03:44:29.157Z,1004.16
2017-07-31T03:45:29.144Z,1004.2
2017-07-31T03:46:29.134Z,1004.21
2017-07-31T03:47:29.121Z,1004.23
2017-07-31T03:48:29.109Z,1004.21
2017-07-31T03:49:29.099Z,1004.21
2017-07-31T03:50:29.088Z,1004.26
2017-07-31T03:51:29.078Z,1004.26
2017-07-31T03:52:29.070Z,1004.28
2017-07-31T03:53:29.052Z,1004.3
2017-07-31T03:54:29.043Z,1004.3
2017-07-31T03:55:29.033Z,1004.32
2017-07-31T03:56:29.026Z,1004.34
2017-07-31T03:57:29.008Z,1004.34
2017-07-31T03:58:28.996Z,1004.36
2017-07-31T03:59:28.984Z,1004.36
2017-07-31T04:00:28.972Z,1004.4
2017-07-31T04:01:28.960Z,1004.38
2017-07-31T04:02:28.948Z,1004.42
2017-07-31T04:03:28.936Z,1004.39
2017-07-31T04:04:28.929Z,1004.41
2017-07-31T04:05:28.919Z,1004.41
2017-07-31T04:06:28.945Z,1004.39
2017-07-31T04:07:28.892Z,1004.37
2017-07-31T04:08:28.881Z,1004.41
2017-07-31T04:09:28.868Z,1004.44
2017-07-31T04:10:28.858Z,1004.4
2017-07-31T04:11:28.844Z,1004.44
2017-07-31T04:12:28.835Z,1004.41
2017-07-31T04:13:28.821Z,1004.4
2017-07-31T04:14:28.811Z,1004.41
2017-07-31T04:15:28.799Z,1004.41
2017-07-31T04:16:28.787Z,1004.37
2017-07-31T04:17:28.776Z,1004.4
2017-07-31T04:18:28.763Z,1004.39
2017-07-31T04:19:28.753Z,1004.41
2017-07-31T04:20:28.743Z,1004.37
2017-07-31T04:21:28.730Z,1004.38
2017-07-31T04:22:28.724Z,1004.37
2017-07-31T04:23:28.707Z,1004.38
2017-07-31T04:24:28.694Z,1004.43
2017-07-31T04:25:28.684Z,1004.44
2017-07-31T04:26:28.674Z,1004.41
2017-07-31T04:27:28.663Z,1004.4
2017-07-31T04:28:28.651Z,1004.41
2017-07-31T04:29:28.639Z,1004.47
2017-07-31T04:30:28.627Z,1004.46
2017-07-31T04:31:28.615Z,1004.49
2017-07-31T04:32:28.606Z,1004.49
2017-07-31T04:33:28.593Z,1004.55
2017-07-31T04:34:28.585Z,1004.61
2017-07-31T04:35:28.570Z,1004.61
2017-07-31T04:36:28.560Z,1004.65
2017-07-31T04:37:28.548Z,1004.67
2017-07-31T04:38:28.538Z,1004.69
2017-07-31T04:39:28.525Z,1004.68
2017-07-31T04:40:28.513Z,1004.71
2017-07-31T04:41:28.503Z,1004.7
2017-07-31T04:42:28.493Z,1004.71
2017-07-31T04:43:28.485Z,1004.74
2017-07-31T04:44:28.471Z,1004.72
2017-07-31T04:45:28.457Z,1004.7
2017-07-31T04:46:28.448Z,1004.72
2017-07-31T04:47:28.437Z,1004.75
2017-07-31T04:48:28.423Z,1004.73
2017-07-31T04:49:28.416Z,1004.77
2017-07-31T04:50:28.400Z,1004.78
2017-07-31T04:51:28.395Z,1004.76
2017-07-31T04:52:28.378Z,1004.75
2017-07-31T04:53:28.372Z,1004.76
2017-07-31T04:54:28.360Z,1004.74
2017-07-31T04:55:28.349Z,1004.71
2017-07-31T04:56:28.334Z,1004.74
2017-07-31T04:57:28.323Z,1004.72
2017-07-31T04:58:28.312Z,1004.76
2017-07-31T04:59:28.303Z,1004.77
2017-07-31T05:00:28.295Z,1004.78
2017-07-31T05:01:28.282Z,1004.79
2017-07-31T05:02:28.269Z,1004.79
2017-07-31T05:03:28.259Z,1004.8
2017-07-31T05:04:28.244Z,1004.8
2017-07-31T05:05:28.234Z,1004.82
2017-07-31T05:06:28.425Z,1004.83
2017-07-31T05:07:28.213Z,1004.79
2017-07-31T05:08:28.198Z,1004.8
2017-07-31T05:09:28.188Z,1004.79
2017-07-31T05:10:28.179Z,1004.76
2017-07-31T05:11:28.171Z,1004.77
2017-07-31T05:12:28.155Z,1004.78
2017-07-31T05:13:28.144Z,1004.72
2017-07-31T05:14:28.136Z,1004.72
2017-07-31T05:15:28.149Z,1004.73
2017-07-31T05:16:28.111Z,1004.7
2017-07-31T05:17:28.100Z,1004.73
2017-07-31T05:18:28.093Z,1004.74
2017-07-31T05:19:28.080Z,1004.77
2017-07-31T05:20:28.067Z,1004.79
2017-07-31T05:21:28.260Z,1004.81
2017-07-31T05:22:28.047Z,1004.84
2017-07-31T05:23:28.035Z,1004.82
2017-07-31T05:24:28.023Z,1004.83
2017-07-31T05:25:28.013Z,1004.8
2017-07-31T05:26:28.000Z,1004.75
2017-07-31T05:27:27.990Z,1004.74
2017-07-31T05:28:27.979Z,1004.75
2017-07-31T05:29:27.968Z,1004.72
2017-07-31T05:30:27.956Z,1004.75
2017-07-31T05:31:27.946Z,1004.7
2017-07-31T05:32:27.936Z,1004.72
2017-07-31T05:33:27.925Z,1004.71
2017-07-31T05:34:27.914Z,1004.73
2017-07-31T05:35:27.903Z,1004.68
2017-07-31T05:36:27.891Z,1004.72
2017-07-31T05:37:27.882Z,1004.71
2017-07-31T05:38:27.869Z,1004.72
2017-07-31T05:39:27.860Z,1004.69
2017-07-31T05:40:27.850Z,1004.68
2017-07-31T05:41:27.837Z,1004.67
2017-07-31T05:42:27.827Z,1004.65
2017-07-31T05:43:27.815Z,1004.63
2017-07-31T05:44:27.806Z,1004.64
2017-07-31T05:45:27.794Z,1004.63
2017-07-31T05:46:27.783Z,1004.64
2017-07-31T05:47:27.773Z,1004.64
2017-07-31T05:48:27.761Z,1004.67
2017-07-31T05:49:27.753Z,1004.65
2017-07-31T05:50:27.741Z,1004.66
2017-07-31T05:51:27.731Z,1004.66
2017-07-31T05:52:27.719Z,1004.68
2017-07-31T05:53:27.712Z,1004.72
2017-07-31T05:54:27.700Z,1004.74
2017-07-31T05:55:27.688Z,1004.74
2017-07-31T05:56:27.679Z,1004.74
2017-07-31T05:57:27.666Z,1004.77
2017-07-31T05:58:27.658Z,1004.8
2017-07-31T05:59:27.646Z,1004.82
2017-07-31T06:00:27.633Z,1004.82
2017-07-31T06:01:27.624Z,1004.85
2017-07-31T06:02:27.617Z,1004.87
2017-07-31T06:03:27.602Z,1004.82
2017-07-31T06:04:27.594Z,1004.83
2017-07-31T06:05:27.581Z,1004.78
2017-07-31T06:06:27.573Z,1004.83
2017-07-31T06:07:27.564Z,1004.84
2017-07-31T06:08:27.550Z,1004.84
2017-07-31T06:09:27.541Z,1004.87
2017-07-31T06:10:27.529Z,1004.88
2017-07-31T06:11:27.520Z,1004.9
2017-07-31T06:12:27.508Z,1004.85
2017-07-31T06:13:27.502Z,1004.88
2017-07-31T06:14:27.488Z,1004.81
2017-07-31T06:15:27.481Z,1004.81
2017-07-31T06:16:27.469Z,1004.8
2017-07-31T06:17:27.457Z,1004.82
2017-07-31T06:18:27.449Z,1004.81
2017-07-31T06:19:27.436Z,1004.79
2017-07-31T06:20:27.431Z,1004.8
2017-07-31T06:21:27.416Z,1004.86
2017-07-31T06:22:27.405Z,1004.86
2017-07-31T06:23:27.395Z,1004.87
2017-07-31T06:24:27.385Z,1004.88
2017-07-31T06:25:27.376Z,1004.88
2017-07-31T06:26:27.365Z,1004.89
2017-07-31T06:27:27.355Z,1004.91
2017-07-31T06:28:27.344Z,1004.93
2017-07-31T06:29:27.337Z,1004.92
2017-07-31T06:30:27.326Z,1004.97
2017-07-31T06:31:27.316Z,1004.94
2017-07-31T06:32:27.304Z,1004.96
2017-07-31T06:33:27.294Z,1004.97
2017-07-31T06:34:27.284Z,1004.97
2017-07-31T06:35:27.327Z,1004.92
2017-07-31T06:36:27.263Z,1004.95
2017-07-31T06:37:27.256Z,1004.94
2017-07-31T06:38:27.243Z,1004.92
2017-07-31T06:39:27.233Z,1004.92
2017-07-31T06:40:27.231Z,1004.92
2017-07-31T06:41:27.214Z,1004.96
2017-07-31T06:42:27.204Z,1004.93
2017-07-31T06:43:27.196Z,1004.95
2017-07-31T06:44:27.185Z,1004.97
2017-07-31T06:45:27.175Z,1004.99
2017-07-31T06:46:27.166Z,1005
2017-07-31T06:47:27.155Z,1004.97
2017-07-31T06:48:27.143Z,1005.02
2017-07-31T06:49:27.135Z,1005
2017-07-31T06:50:27.125Z,1005.06
2017-07-31T06:51:27.114Z,1005.07
2017-07-31T06:52:27.106Z,1005.1
2017-07-31T06:53:27.096Z,1005.13
2017-07-31T06:54:27.087Z,1005.12
2017-07-31T06:55:27.076Z,1005.13
2017-07-31T06:56:27.070Z,1005.15
2017-07-31T06:57:27.059Z,1005.17
2017-07-31T06:58:27.049Z,1005.12
2017-07-31T06:59:27.040Z,1005.16
2017-07-31T07:00:27.032Z,1005.13
2017-07-31T07:01:27.018Z,1005.15
2017-07-31T07:02:27.010Z,1005.12
2017-07-31T07:03:27.001Z,1005.16
2017-07-31T07:04:26.990Z,1005.15
2017-07-31T07:05:26.980Z,1005.17
2017-07-31T07:06:26.971Z,1005.2
2017-07-31T07:07:26.962Z,1005.22
2017-07-31T07:08:26.977Z,1005.21
2017-07-31T07:09:26.950Z,1005.22
2017-07-31T07:10:26.935Z,1005.26
2017-07-31T07:11:26.927Z,1005.26
2017-07-31T07:12:26.914Z,1005.27
2017-07-31T07:13:26.907Z,1005.24
2017-07-31T07:14:26.899Z,1005.22
2017-07-31T07:15:26.894Z,1005.22
2017-07-31T07:16:27.083Z,1005.2
2017-07-31T07:17:26.870Z,1005.2
2017-07-31T07:18:26.868Z,1005.16
2017-07-31T07:19:26.854Z,1005.13
2017-07-31T07:20:26.844Z,1005.18
2017-07-31T07:21:27.041Z,1005.17
2017-07-31T07:22:26.828Z,1005.15
2017-07-31T07:23:26.817Z,1005.14
2017-07-31T07:24:26.808Z,1005.13
2017-07-31T07:25:26.800Z,1005.08
2017-07-31T07:26:26.794Z,1005.1
2017-07-31T07:27:26.783Z,1005.08
2017-07-31T07:28:26.774Z,1005.07
2017-07-31T07:29:26.765Z,1005.05
2017-07-31T07:30:26.757Z,1004.99
2017-07-31T07:31:26.746Z,1004.98
2017-07-31T07:32:26.738Z,1004.96
2017-07-31T07:33:26.730Z,1004.96
2017-07-31T07:34:26.721Z,1005.05
2017-07-31T07:35:26.711Z,1005.26
2017-07-31T07:36:26.702Z,1005.35
2017-07-31T07:37:26.695Z,1005.36
2017-07-31T07:38:26.687Z,1005.42
2017-07-31T07:39:26.678Z,1005.43
2017-07-31T07:40:26.673Z,1005.11
2017-07-31T07:41:26.671Z,1005.18
2017-07-31T07:42:26.658Z,1005.12
2017-07-31T07:43:26.652Z,1005.16
2017-07-31T07:44:26.644Z,1005.1
2017-07-31T07:45:26.637Z,1005.36
2017-07-31T07:46:26.633Z,1005.11
2017-07-31T07:47:26.625Z,1005.25
2017-07-31T07:48:26.621Z,1005.38
2017-07-31T07:49:26.612Z,1005.41
2017-07-31T07:50:26.606Z,1005.38
2017-07-31T07:51:26.601Z,1005.38
2017-07-31T07:52:26.599Z,1005.39
2017-07-31T07:53:26.593Z,1005.26
2017-07-31T07:54:26.592Z,1005.44
2017-07-31T07:55:26.582Z,1005.45
2017-07-31T07:56:26.578Z,1005.44
2017-07-31T07:57:26.575Z,1005.46
2017-07-31T07:58:26.571Z,1005.52
2017-07-31T07:59:26.568Z,1005.52
2017-07-31T08:00:26.561Z,1005.57
2017-07-31T08:01:26.561Z,1005.45
2017-07-31T08:02:26.558Z,1005.56
2017-07-31T08:03:26.555Z,1005.56
2017-07-31T08:04:26.551Z,1005.43
2017-07-31T08:05:26.547Z,1005.68
2017-07-31T08:06:26.544Z,1005.6
2017-07-31T08:07:26.542Z,1005.51
2017-07-31T08:08:26.543Z,1005.54
2017-07-31T08:09:26.539Z,1005.54
2017-07-31T08:10:26.540Z,1005.54
2017-07-31T08:11:26.532Z,1005.52
2017-07-31T08:12:26.532Z,1005.3
2017-07-31T08:13:26.529Z,1005.52
2017-07-31T08:14:26.527Z,1005.45
2017-07-31T08:15:26.523Z,1005.32
2017-07-31T08:16:26.522Z,1005.49
2017-07-31T08:17:26.519Z,1005.62
2017-07-31T08:18:26.518Z,1005.65
2017-07-31T08:19:26.513Z,1005.59
2017-07-31T08:20:26.512Z,1005.59
2017-07-31T08:21:26.511Z,1005.27
2017-07-31T08:22:26.508Z,1005.61
2017-07-31T08:24:26.506Z,1005.54
2017-07-31T08:25:26.502Z,1005.67
2017-07-31T08:26:26.502Z,1005.73
2017-07-31T08:27:26.501Z,1005.71
2017-07-31T08:28:26.500Z,1005.75
2017-07-31T08:29:26.496Z,1005.73
2017-07-31T08:30:26.494Z,1005.77
2017-07-31T08:31:26.494Z,1005.71
2017-07-31T08:32:26.501Z,1005.74
2017-07-31T08:33:26.492Z,1005.81
2017-07-31T08:34:26.492Z,1005.77
2017-07-31T08:35:26.495Z,1005.79
2017-07-31T08:36:26.491Z,1005.71
2017-07-31T08:37:26.491Z,1005.68
2017-07-31T08:38:26.491Z,1005.55
2017-07-31T08:39:26.498Z,1005.48
2017-07-31T08:40:26.491Z,1005.53
2017-07-31T08:41:26.488Z,1005.53
2017-07-31T08:42:26.488Z,1005.37
2017-07-31T08:43:26.488Z,1005.45
2017-07-31T08:44:26.487Z,1005.38
2017-07-31T08:45:26.489Z,1005.42
2017-07-31T08:46:26.489Z,1005.43
2017-07-31T08:47:26.481Z,1005.42
2017-07-31T08:48:26.479Z,1005.51
2017-07-31T08:49:26.478Z,1005.45
2017-07-31T08:50:26.477Z,1005.5
2017-07-31T08:51:26.476Z,1005.4
2017-07-31T08:52:26.471Z,1005.35
2017-07-31T08:53:26.511Z,1005.39
2017-07-31T08:54:26.467Z,1005.35
2017-07-31T08:55:26.464Z,1005.28
2017-07-31T08:56:26.461Z,1005.26
2017-07-31T08:57:26.458Z,1005.2
2017-07-31T08:58:26.455Z,1005.24
2017-07-31T08:59:26.451Z,1005.29
2017-07-31T09:00:26.448Z,1005.27
2017-07-31T09:01:26.446Z,1005.24
2017-07-31T09:02:26.440Z,1005.25
2017-07-31T09:03:26.436Z,1005.26
2017-07-31T09:04:26.434Z,1005.3
2017-07-31T09:05:26.428Z,1005.27
2017-07-31T09:06:26.427Z,1005.28
2017-07-31T09:07:26.421Z,1005.25
2017-07-31T09:08:26.417Z,1005.34
2017-07-31T09:09:26.412Z,1005.28
2017-07-31T09:10:26.409Z,1005.27
2017-07-31T09:11:26.402Z,1005.27
2017-07-31T09:12:26.398Z,1005.25
2017-07-31T09:13:26.392Z,1005.28
2017-07-31T09:14:26.386Z,1005.29
2017-07-31T09:15:26.384Z,1005.28
2017-07-31T09:16:26.383Z,1005.29
2017-07-31T09:17:26.379Z,1005.33
2017-07-31T09:18:26.368Z,1005.37
2017-07-31T09:19:26.407Z,1005.29
2017-07-31T09:20:26.358Z,1005.25
2017-07-31T09:21:26.556Z,1005.22
2017-07-31T09:22:26.350Z,1005.3
2017-07-31T09:23:26.343Z,1005.32
2017-07-31T09:24:26.336Z,1005.29
2017-07-31T09:25:26.336Z,1005.28
2017-07-31T09:26:26.327Z,1005.25
2017-07-31T09:27:26.321Z,1005.28
2017-07-31T09:28:26.319Z,1005.36
2017-07-31T09:29:26.313Z,1005.35
2017-07-31T09:30:26.307Z,1005.38
2017-07-31T09:31:26.300Z,1005.4
2017-07-31T09:32:26.295Z,1005.43
2017-07-31T09:33:26.289Z,1005.39
2017-07-31T09:34:26.285Z,1005.39
2017-07-31T09:35:26.276Z,1005.44
2017-07-31T09:36:26.272Z,1005.36
2017-07-31T09:37:26.265Z,1005.38
2017-07-31T09:38:26.262Z,1005.35
2017-07-31T09:39:26.252Z,1005.33
2017-07-31T09:40:26.249Z,1005.26
2017-07-31T09:41:26.242Z,1005.35
2017-07-31T09:42:26.235Z,1005.34
2017-07-31T09:43:26.229Z,1005.39
2017-07-31T09:44:26.224Z,1005.33
2017-07-31T09:45:26.216Z,1005.34
2017-07-31T09:46:26.210Z,1005.32
2017-07-31T09:47:26.207Z,1005.42
2017-07-31T09:48:26.198Z,1005.47
2017-07-31T09:49:26.192Z,1005.5
2017-07-31T09:50:26.185Z,1005.49
2017-07-31T09:51:26.179Z,1005.47
2017-07-31T09:52:26.174Z,1005.45
2017-07-31T09:53:26.166Z,1005.45
2017-07-31T09:54:26.160Z,1005.46
2017-07-31T09:55:26.154Z,1005.43
2017-07-31T09:56:26.150Z,1005.39
2017-07-31T09:57:26.147Z,1005.4
2017-07-31T09:58:26.146Z,1005.36
2017-07-31T09:59:26.154Z,1005.45
2017-07-31T10:00:26.126Z,1005.46
2017-07-31T10:01:26.136Z,1005.48
2017-07-31T10:02:26.114Z,1005.55
2017-07-31T10:03:26.109Z,1005.51
2017-07-31T10:04:26.104Z,1005.54
2017-07-31T10:05:26.103Z,1005.5
2017-07-31T10:06:26.094Z,1005.46
2017-07-31T10:07:26.087Z,1005.45
2017-07-31T10:08:26.083Z,1005.51
2017-07-31T10:09:26.076Z,1005.47
2017-07-31T10:10:26.070Z,1005.53
2017-07-31T10:11:26.066Z,1005.44
2017-07-31T10:12:26.062Z,1005.5
2017-07-31T10:13:26.053Z,1005.44
2017-07-31T10:14:26.048Z,1005.6
2017-07-31T10:15:26.040Z,1005.57
2017-07-31T10:16:26.057Z,1006.08
2017-07-31T10:17:26.031Z,1005.52
2017-07-31T10:18:26.025Z,1005.56
2017-07-31T10:19:26.019Z,1005.68
2017-07-31T10:20:26.020Z,1005.6
2017-07-31T10:21:26.010Z,1005.72
2017-07-31T10:22:26.017Z,1005.82
2017-07-31T10:23:26.006Z,1005.71
2017-07-31T10:24:25.995Z,1005.91
2017-07-31T10:25:25.991Z,1005.84
2017-07-31T10:26:25.985Z,1006.22
2017-07-31T10:27:25.979Z,1006.29
2017-07-31T10:28:25.975Z,1006.24
2017-07-31T10:29:25.973Z,1006.34
2017-07-31T10:30:25.970Z,1006.32
2017-07-31T10:31:25.964Z,1006.41
2017-07-31T10:32:25.962Z,1006.6
2017-07-31T10:33:25.958Z,1006.43
2017-07-31T10:34:25.956Z,1006.43
2017-07-31T10:35:25.955Z,1006.44
2017-07-31T10:36:25.954Z,1006.46
2017-07-31T10:37:25.951Z,1006.41
2017-07-31T10:38:25.952Z,1006.44
2017-07-31T10:39:25.950Z,1006.4
2017-07-31T10:40:25.951Z,1006.17
2017-07-31T10:41:25.950Z,1006.28
2017-07-31T10:42:25.949Z,1006.18
2017-07-31T10:43:25.951Z,1006.11
2017-07-31T10:44:25.949Z,1006.27
2017-07-31T10:45:25.950Z,1006.32
2017-07-31T10:46:25.956Z,1006.18
2017-07-31T10:47:25.954Z,1006.25
2017-07-31T10:48:25.953Z,1006.09
2017-07-31T10:49:25.960Z,1006.17
2017-07-31T10:50:25.958Z,1006.33
2017-07-31T10:51:25.962Z,1006.11
2017-07-31T10:52:25.967Z,1006.02
2017-07-31T10:53:25.963Z,1006.08
2017-07-31T10:54:25.966Z,1006.05
2017-07-31T10:55:25.967Z,1005.98
2017-07-31T10:56:25.970Z,1005.97
2017-07-31T10:57:25.973Z,1006.01
2017-07-31T10:58:25.975Z,1006.04
2017-07-31T10:59:25.972Z,1006.02
2017-07-31T11:00:25.977Z,1006.09
2017-07-31T11:01:25.990Z,1006.21
2017-07-31T11:02:25.976Z,1006.13
2017-07-31T11:03:25.979Z,1006.13
2017-07-31T11:04:25.978Z,1006.15
2017-07-31T11:05:25.979Z,1006.32
2017-07-31T11:06:25.980Z,1006.25
2017-07-31T11:07:25.978Z,1006.27
2017-07-31T11:08:25.978Z,1006.29
2017-07-31T11:09:25.989Z,1006.38
2017-07-31T11:10:25.984Z,1006.4
2017-07-31T11:11:25.978Z,1006.43
2017-07-31T11:12:25.979Z,1006.34
2017-07-31T11:13:25.979Z,1006.37
2017-07-31T11:14:25.978Z,1006.22
2017-07-31T11:15:25.981Z,1006.25
2017-07-31T11:16:25.980Z,1006.16
2017-07-31T11:17:25.981Z,1006.06
2017-07-31T11:18:25.983Z,1006.09
2017-07-31T11:19:25.983Z,1006.07
2017-07-31T11:20:25.984Z,1006.16
2017-07-31T11:21:26.188Z,1006.29
2017-07-31T11:22:25.987Z,1006.36
2017-07-31T11:23:25.990Z,1006.46
2017-07-31T11:24:25.993Z,1006.35
2017-07-31T11:25:25.992Z,1006.33
2017-07-31T11:26:25.996Z,1006.31
2017-07-31T11:27:25.997Z,1006.28
2017-07-31T11:28:25.999Z,1006.29
2017-07-31T11:29:26.004Z,1006.36
2017-07-31T11:30:26.006Z,1006.45
2017-07-31T11:31:26.009Z,1006.47
2017-07-31T11:32:26.012Z,1006.56
2017-07-31T11:33:26.015Z,1006.61
2017-07-31T11:34:26.018Z,1006.54
2017-07-31T11:35:26.023Z,1006.45
2017-07-31T11:36:26.025Z,1006.38
2017-07-31T11:37:26.027Z,1006.45
2017-07-31T11:38:26.028Z,1006.43
2017-07-31T11:39:26.030Z,1006.48
2017-07-31T11:40:26.033Z,1006.52
2017-07-31T11:41:26.034Z,1006.53
2017-07-31T11:42:26.040Z,1006.49
2017-07-31T11:43:26.036Z,1006.42
2017-07-31T11:44:26.039Z,1006.35
2017-07-31T11:45:26.043Z,1006.38
2017-07-31T11:46:26.041Z,1006.35
2017-07-31T11:47:26.047Z,1006.32
2017-07-31T11:48:26.042Z,1006.35
2017-07-31T11:49:26.045Z,1006.39
2017-07-31T11:50:26.045Z,1006.49
2017-07-31T11:51:26.045Z,1006.47
2017-07-31T11:52:26.045Z,1006.55
2017-07-31T11:53:26.045Z,1006.53
2017-07-31T11:54:26.045Z,1006.65
2017-07-31T11:55:26.046Z,1006.59
2017-07-31T11:56:26.048Z,1006.61
2017-07-31T11:57:26.051Z,1006.5
2017-07-31T11:58:26.054Z,1006.43
2017-07-31T11:59:26.045Z,1006.43
2017-07-31T12:00:26.043Z,1006.43
2017-07-31T12:01:26.042Z,1006.4
2017-07-31T12:02:26.059Z,1006.4
2017-07-31T12:03:26.041Z,1006.4
2017-07-31T12:04:26.041Z,1006.41
2017-07-31T12:05:26.039Z,1006.38
2017-07-31T12:06:26.040Z,1006.43
2017-07-31T12:07:26.040Z,1006.41
2017-07-31T12:08:26.041Z,1006.41
2017-07-31T12:09:26.037Z,1006.45